Time;durP1;ratioP1;P1;durP2;ratioP2;P2;SDS_P1;SDS_P2;PMS_P1;PMS_P2;Temp;Humidity;BMP_temperature;BMP_pressure;BME280_temperature;BME280_humidity;BME280_pressure;Samples;Min_cycle;Max_cycle;Signal;HPM_P1;HPM_P2
2022/08/18 00:01:42;;;;;;;15.70;14.15;;;20.70;86.20;;;;;;5032202;28;20473;-28
2022/08/18 00:04:09;;;;;;;16.08;14.38;;;20.70;86.10;;;;;;5032877;28;20030;-24
2022/08/18 00:06:35;;;;;;;16.27;14.65;;;20.70;86.10;;;;;;5032805;28;20030;-24
2022/08/18 00:09:04;;;;;;;16.02;14.35;;;20.70;86.10;;;;;;5032681;28;20037;-25
2022/08/18 00:11:33;;;;;;;15.75;14.25;;;20.70;86.00;;;;;;5032920;28;20586;-27
2022/08/18 00:13:59;;;;;;;17.70;15.82;;;20.70;86.00;;;;;;5032513;28;20022;-25
2022/08/18 00:16:24;;;;;;;17.58;15.77;;;20.70;85.90;;;;;;5032706;28;20436;-25
2022/08/18 00:18:50;;;;;;;15.15;13.60;;;20.70;86.00;;;;;;5032508;28;20018;-26
2022/08/18 00:21:17;;;;;;;16.55;14.90;;;20.60;86.00;;;;;;5032534;28;20025;-26
2022/08/18 00:23:43;;;;;;;16.10;14.13;;;20.60;86.00;;;;;;5032388;28;20033;-31
2022/08/18 00:26:09;;;;;;;15.75;14.15;;;20.60;86.00;;;;;;5032693;28;20026;-25
2022/08/18 00:28:34;;;;;;;16.45;14.75;;;20.60;85.90;;;;;;5032452;28;20021;-28
2022/08/18 00:31:00;;;;;;;16.08;14.48;;;20.60;86.00;;;;;;5032399;28;20468;-27
2022/08/18 00:33:26;;;;;;;15.93;14.40;;;20.60;86.10;;;;;;5031107;28;20093;-27
2022/08/18 00:35:52;;;;;;;17.52;14.23;;;20.60;86.00;;;;;;5032632;28;20532;-28
2022/08/18 00:38:17;;;;;;;14.63;13.13;;;20.70;86.10;;;;;;5031044;28;20129;-28
2022/08/18 00:40:47;;;;;;;15.05;13.55;;;20.60;85.90;;;;;;5032119;28;20362;-33
2022/08/18 00:43:31;;;;;;;16.73;14.90;;;20.60;85.90;;;;;;5032299;28;20102;-25
2022/08/18 00:45:57;;;;;;;15.90;14.25;;;20.70;86.00;;;;;;5032171;28;20037;-25
2022/08/18 00:48:23;;;;;;;17.10;15.10;;;20.60;85.80;;;;;;5032441;28;20022;-25
2022/08/18 00:50:53;;;;;;;16.88;15.15;;;20.60;85.90;;;;;;5032016;28;20089;-25
2022/08/18 00:53:22;;;;;;;16.67;14.98;;;20.60;86.00;;;;;;5032229;28;20025;-27
2022/08/18 00:55:49;;;;;;;15.65;14.05;;;20.60;85.90;;;;;;5032136;28;20022;-24
2022/08/18 00:58:20;;;;;;;14.65;13.13;;;20.60;86.00;;;;;;5032234;28;20076;-25
2022/08/18 01:00:49;;;;;;;15.55;13.93;;;20.60;85.90;;;;;;5031986;28;20108;-26
2022/08/18 01:03:17;;;;;;;16.30;14.50;;;20.60;85.90;;;;;;5032269;28;20017;-26
2022/08/18 01:05:51;;;;;;;15.50;14.00;;;20.50;85.90;;;;;;5032101;28;20052;-25
2022/08/18 01:08:17;;;;;;;15.43;13.18;;;20.50;86.00;;;;;;5032394;28;20033;-25
2022/08/18 01:10:44;;;;;;;13.98;12.63;;;20.50;86.00;;;;;;5030840;28;20026;-27
2022/08/18 01:13:09;;;;;;;14.23;12.30;;;20.50;86.00;;;;;;5031868;28;20120;-28
2022/08/18 01:15:36;;;;;;;13.82;12.43;;;20.50;86.00;;;;;;5036018;28;20064;-24
2022/08/18 01:23:58;;;;;;;12.85;11.63;;;20.50;85.70;;;;;;5036084;28;20130;-25
2022/08/18 01:26:25;;;;;;;13.65;12.25;;;20.50;85.60;;;;;;5035555;28;20025;-28
2022/08/18 01:28:51;;;;;;;11.82;10.68;;;20.50;85.50;;;;;;5035469;28;20128;-25
2022/08/18 01:31:42;;;;;;;11.10;9.95;;;20.40;85.50;;;;;;5035630;28;20024;-27
2022/08/18 01:34:10;;;;;;;13.00;11.18;;;20.50;85.50;;;;;;5035185;28;20025;-25
2022/08/18 01:36:39;;;;;;;11.80;10.60;;;20.50;85.50;;;;;;5035190;28;20025;-25
2022/08/18 01:39:10;;;;;;;11.48;10.45;;;20.50;85.40;;;;;;5035687;28;20064;-28
2022/08/18 01:41:36;;;;;;;12.23;11.02;;;20.50;85.30;;;;;;5035033;28;20052;-31
2022/08/18 01:44:03;;;;;;;12.57;11.32;;;20.50;85.30;;;;;;5035363;28;20065;-26
2022/08/18 01:46:32;;;;;;;12.38;10.93;;;20.50;85.30;;;;;;5035307;28;20389;-25
2022/08/18 01:48:59;;;;;;;10.43;9.43;;;20.50;85.20;;;;;;5034960;28;20031;-25
2022/08/18 01:51:30;;;;;;;10.68;9.35;;;20.50;85.20;;;;;;5033613;28;20430;-27
2022/08/18 01:53:57;;;;;;;11.30;10.13;;;20.50;85.10;;;;;;5035239;28;20017;-25
2022/08/18 01:56:22;;;;;;;11.23;9.50;;;20.50;85.10;;;;;;5033467;28;20021;-26
2022/08/18 01:58:48;;;;;;;10.23;9.23;;;20.50;85.00;;;;;;5035095;28;20032;-25
2022/08/18 02:01:14;;;;;;;9.65;8.77;;;20.40;84.90;;;;;;5033452;28;20048;-27
2022/08/18 02:03:45;;;;;;;10.55;8.98;;;20.40;84.80;;;;;;5034794;28;20384;-25
2022/08/18 02:06:13;;;;;;;11.18;8.52;;;20.40;84.70;;;;;;5034505;28;20046;-26
2022/08/18 02:08:39;;;;;;;9.65;8.65;;;20.30;84.60;;;;;;5034926;28;20101;-25
2022/08/18 02:11:06;;;;;;;9.82;8.82;;;20.30;84.60;;;;;;5034727;28;20496;-25
2022/08/18 02:13:32;;;;;;;10.23;9.18;;;20.20;84.60;;;;;;5034677;28;20469;-26
2022/08/18 02:15:59;;;;;;;9.55;8.57;;;20.20;84.70;;;;;;5034952;28;20022;-25
2022/08/18 02:18:28;;;;;;;9.98;8.80;;;20.10;84.70;;;;;;5034494;28;20105;-26
2022/08/18 02:20:55;;;;;;;10.07;8.90;;;20.10;84.70;;;;;;5034631;28;20025;-25
2022/08/18 02:23:21;;;;;;;9.38;8.18;;;20.20;84.70;;;;;;5034440;28;20029;-28
2022/08/18 02:25:47;;;;;;;9.68;8.82;;;20.20;84.70;;;;;;5033742;28;20034;-25
2022/08/18 02:28:12;;;;;;;9.30;8.35;;;20.20;84.60;;;;;;5034316;28;20113;-27
2022/08/18 02:30:39;;;;;;;10.35;8.70;;;20.30;84.60;;;;;;5034105;28;20095;-25
2022/08/18 02:33:06;;;;;;;9.45;8.48;;;20.30;85.00;;;;;;5034460;28;20033;-25
2022/08/18 02:35:32;;;;;;;9.02;8.23;;;20.20;84.40;;;;;;5033083;28;20031;-27
2022/08/18 02:38:03;;;;;;;11.07;8.65;;;20.30;84.40;;;;;;5034279;28;20028;-25
2022/08/18 02:40:28;;;;;;;8.55;7.63;;;20.20;84.20;;;;;;5034019;28;20041;-25
2022/08/18 02:42:54;;;;;;;9.90;8.35;;;20.20;84.10;;;;;;5033908;28;20025;-28
2022/08/18 02:45:22;;;;;;;9.65;8.73;;;20.10;84.20;;;;;;5034180;28;20044;-27
2022/08/18 02:47:52;;;;;;;8.98;8.10;;;20.10;84.40;;;;;;5034192;28;20444;-25
2022/08/18 02:50:18;;;;;;;10.15;8.30;;;20.10;84.50;;;;;;5033748;28;20485;-25
2022/08/18 02:52:44;;;;;;;9.02;8.10;;;20.10;84.50;;;;;;5033729;28;20108;-25
2022/08/18 02:55:10;;;;;;;9.77;8.77;;;20.10;84.40;;;;;;5033671;28;20136;-25
2022/08/18 02:57:41;;;;;;;9.35;8.45;;;20.10;84.40;;;;;;5033897;28;20469;-25
2022/08/18 03:00:09;;;;;;;7.57;6.43;;;20.10;84.50;;;;;;5033907;28;20032;-26
2022/08/18 03:02:35;;;;;;;9.00;8.10;;;20.10;84.30;;;;;;5033654;28;20059;-30
2022/08/18 03:05:00;;;;;;;8.65;7.80;;;20.10;84.30;;;;;;5033335;28;20041;-25
2022/08/18 03:07:26;;;;;;;8.75;7.95;;;20.10;84.30;;;;;;5032127;28;20076;-25
2022/08/18 03:09:52;;;;;;;8.77;7.90;;;20.20;84.30;;;;;;5033518;28;20542;-25
2022/08/18 03:12:17;;;;;;;8.30;7.55;;;20.20;84.40;;;;;;5033316;28;20033;-25
2022/08/18 03:14:43;;;;;;;8.95;7.82;;;20.20;84.40;;;;;;5033286;28;20532;-26
2022/08/18 03:17:09;;;;;;;9.15;7.68;;;20.20;84.30;;;;;;5033287;28;20096;-26
2022/08/18 03:19:34;;;;;;;9.35;7.15;;;20.20;84.30;;;;;;5033222;28;20018;-31
2022/08/18 03:22:00;;;;;;;8.63;7.78;;;20.30;84.30;;;;;;5033383;28;20029;-27
2022/08/18 03:24:27;;;;;;;8.32;7.20;;;20.30;84.20;;;;;;5033211;28;20037;-26
2022/08/18 03:26:55;;;;;;;9.20;7.93;;;20.30;84.20;;;;;;5033353;28;20056;-25
2022/08/18 03:29:22;;;;;;;9.15;7.85;;;20.30;84.10;;;;;;5033274;28;20032;-25
2022/08/18 03:31:48;;;;;;;8.18;7.38;;;20.40;84.10;;;;;;5033165;28;20426;-25
2022/08/18 03:34:18;;;;;;;8.18;7.43;;;20.40;84.00;;;;;;5032945;28;20154;-25
2022/08/18 03:36:44;;;;;;;7.13;6.47;;;20.40;83.90;;;;;;5032172;28;20048;-26
2022/08/18 03:39:12;;;;;;;7.88;7.03;;;20.40;83.90;;;;;;5032875;28;20432;-33
2022/08/18 03:41:42;;;;;;;7.60;6.90;;;20.40;83.90;;;;;;5032863;28;20492;-25
2022/08/18 03:44:08;;;;;;;7.57;6.82;;;20.40;83.80;;;;;;5033055;28;20491;-25
2022/08/18 03:46:34;;;;;;;7.88;7.07;;;20.40;83.80;;;;;;5032646;28;20112;-26
2022/08/18 03:49:00;;;;;;;7.97;7.18;;;20.40;83.80;;;;;;5031399;28;20113;-25
2022/08/18 03:51:30;;;;;;;7.55;6.75;;;20.40;83.80;;;;;;5033074;28;20025;-26
2022/08/18 03:53:59;;;;;;;8.32;6.68;;;20.40;83.80;;;;;;5032622;28;20032;-27
2022/08/18 03:56:32;;;;;;;7.90;6.90;;;20.30;83.70;;;;;;5032942;28;20014;-25
2022/08/18 03:59:00;;;;;;;7.45;6.70;;;20.40;83.80;;;;;;5032631;28;20017;-27
2022/08/18 04:01:31;;;;;;;7.88;7.00;;;20.40;83.80;;;;;;5032654;28;20207;-26
2022/08/18 04:04:01;;;;;;;8.10;7.30;;;20.30;83.70;;;;;;5031041;28;20026;-25
2022/08/18 04:06:35;;;;;;;8.07;6.93;;;20.40;83.80;;;;;;5032508;28;20025;-29
2022/08/18 04:09:04;;;;;;;8.15;6.43;;;20.40;83.80;;;;;;5032791;28;20032;-26
2022/08/18 04:11:33;;;;;;;8.50;6.82;;;20.30;83.80;;;;;;5032362;28;20029;-25
2022/08/18 04:13:58;;;;;;;9.27;7.28;;;20.30;83.80;;;;;;5032799;28;20093;-33
2022/08/18 04:16:25;;;;;;;8.57;7.43;;;20.30;83.80;;;;;;5032929;28;20100;-25
2022/08/18 04:18:51;;;;;;;7.28;6.63;;;20.20;83.70;;;;;;5032328;28;20017;-26
2022/08/18 04:21:17;;;;;;;8.90;6.68;;;20.20;83.80;;;;;;5032381;28;20051;-26
2022/08/18 04:23:43;;;;;;;7.03;6.40;;;20.20;83.80;;;;;;5032612;28;20072;-25
2022/08/18 04:26:10;;;;;;;8.27;6.63;;;20.20;83.90;;;;;;5032365;28;20022;-26
2022/08/18 04:28:36;;;;;;;8.35;6.70;;;20.20;83.90;;;;;;5032508;28;20029;-25
2022/08/18 04:31:08;;;;;;;7.80;6.68;;;20.20;83.80;;;;;;5032118;28;20030;-25
2022/08/18 04:33:33;;;;;;;8.63;6.55;;;20.30;83.90;;;;;;5032665;28;20025;-26
2022/08/18 04:36:09;;;;;;;7.22;6.38;;;20.20;83.80;;;;;;5032343;28;20021;-25
2022/08/18 04:38:35;;;;;;;8.15;6.50;;;20.20;83.90;;;;;;5032264;28;20449;-26
2022/08/18 04:41:02;;;;;;;7.80;6.47;;;20.20;83.90;;;;;;5032284;28;20029;-26
2022/08/18 04:43:29;;;;;;;7.70;6.80;;;20.20;84.00;;;;;;5032216;28;20033;-25
2022/08/18 04:46:00;;;;;;;8.85;6.75;;;20.20;83.90;;;;;;5032426;28;20370;-26
2022/08/18 04:48:33;;;;;;;7.85;6.43;;;20.30;84.00;;;;;;5033465;28;20033;-26
2022/08/18 04:51:11;;;;;;;7.47;6.78;;;20.30;83.90;;;;;;5036194;28;20084;-28
2022/08/18 04:53:44;;;;;;;8.38;6.72;;;20.30;83.80;;;;;;5036065;28;20025;-31
2022/08/18 04:56:24;;;;;;;7.93;6.78;;;20.20;83.80;;;;;;5036023;28;20044;-26
2022/08/18 04:58:54;;;;;;;7.15;6.50;;;20.20;84.00;;;;;;5036098;28;20044;-32
2022/08/18 05:01:27;;;;;;;8.75;7.40;;;20.20;84.00;;;;;;5035780;28;20048;-25
2022/08/18 05:03:57;;;;;;;10.30;7.70;;;20.20;84.00;;;;;;5035663;28;20021;-26
2022/08/18 05:06:25;;;;;;;8.75;7.85;;;20.20;84.10;;;;;;5035770;28;20038;-25
2022/08/18 05:08:53;;;;;;;9.57;7.65;;;20.20;84.20;;;;;;5034436;28;20030;-25
2022/08/18 05:11:20;;;;;;;8.70;7.45;;;20.20;84.10;;;;;;5034836;28;20069;-25
2022/08/18 05:13:46;;;;;;;11.52;7.40;;;20.20;84.10;;;;;;5035889;28;20508;-25
2022/08/18 05:16:11;;;;;;;8.07;7.28;;;20.20;84.10;;;;;;5035811;28;20014;-25
2022/08/18 05:18:39;;;;;;;10.13;7.68;;;20.20;84.10;;;;;;5035653;28;20582;-24
2022/08/18 05:21:15;;;;;;;8.90;8.00;;;20.20;84.20;;;;;;5035549;28;20025;-26
2022/08/18 05:23:43;;;;;;;9.40;7.95;;;20.20;84.20;;;;;;5035425;28;20037;-27
2022/08/18 05:26:09;;;;;;;10.38;8.57;;;20.20;84.30;;;;;;5035765;28;20543;-26
2022/08/18 05:28:36;;;;;;;10.90;8.25;;;20.20;84.40;;;;;;5035553;28;20477;-33
2022/08/18 05:31:07;;;;;;;10.52;8.38;;;20.20;84.40;;;;;;5035727;28;20021;-25
2022/08/18 05:33:32;;;;;;;10.85;8.60;;;20.20;84.40;;;;;;5035501;28;20045;-25
2022/08/18 05:36:09;;;;;;;10.50;7.97;;;20.20;84.50;;;;;;5035543;28;20025;-25
2022/08/18 05:39:01;;;;;;;10.48;8.07;;;20.20;84.50;;;;;;5035463;28;20053;-25
2022/08/18 05:41:32;;;;;;;8.77;7.38;;;20.20;84.50;;;;;;5004973;28;20034;-27
2022/08/18 05:43:59;;;;;;;10.38;8.38;;;20.20;84.50;;;;;;5035726;28;20091;-29
2022/08/18 05:46:36;;;;;;;11.55;7.40;;;20.20;84.60;;;;;;5035887;28;20373;-25
2022/08/18 05:49:02;;;;;;;8.85;7.60;;;20.20;84.60;;;;;;5035695;28;20032;-25
2022/08/18 05:51:37;;;;;;;9.20;7.57;;;20.30;84.70;;;;;;5035220;28;20029;-25
2022/08/18 05:56:52;;;;;;;9.23;7.10;;;20.30;84.50;;;;;;5035363;28;20028;-31
2022/08/18 05:59:31;;;;;;;8.02;7.13;;;20.40;84.40;;;;;;5034265;28;20095;-26
2022/08/18 06:02:34;;;;;;;8.57;6.88;;;20.50;84.30;;;;;;5035134;28;20027;-25
2022/08/18 06:05:10;;;;;;;9.07;7.45;;;20.50;84.10;;;;;;5034613;28;20111;-25
2022/08/18 06:07:50;;;;;;;8.55;6.10;;;20.50;84.70;;;;;;5034747;28;20040;-26
2022/08/18 06:10:15;;;;;;;8.50;7.03;;;20.50;84.00;;;;;;5034779;28;20568;-27
2022/08/18 06:12:46;;;;;;;7.63;6.78;;;20.60;83.90;;;;;;5034438;28;20139;-25
2022/08/18 06:15:38;;;;;;;7.53;6.40;;;20.70;83.80;;;;;;5033092;28;20048;-25
2022/08/18 06:18:32;;;;;;;7.25;6.30;;;20.70;83.70;;;;;;5034627;28;20075;-25
2022/08/18 06:21:23;;;;;;;8.80;6.70;;;20.80;83.40;;;;;;5034293;28;20128;-26
2022/08/18 06:24:17;;;;;;;8.02;6.80;;;20.80;83.50;;;;;;5034158;28;20109;-25
2022/08/18 06:26:46;;;;;;;10.57;6.78;;;20.80;83.40;;;;;;5034355;28;20026;-29
2022/08/18 06:29:35;;;;;;;9.07;6.28;;;20.90;83.40;;;;;;5032600;28;20044;-26
2022/08/18 06:32:28;;;;;;;8.18;6.70;;;21.00;83.30;;;;;;5034132;28;20033;-25
2022/08/18 06:35:08;;;;;;;7.20;5.95;;;21.00;83.10;;;;;;5033957;28;20025;-24
2022/08/18 06:40:41;;;;;;;7.65;6.00;;;21.10;83.00;;;;;;5034245;28;20079;-30
2022/08/18 06:43:11;;;;;;;6.68;5.97;;;21.10;82.80;;;;;;5034084;28;20029;-25
2022/08/18 06:45:40;;;;;;;6.80;5.60;;;21.10;82.90;;;;;;5032407;28;20051;-27
2022/08/18 06:48:17;;;;;;;8.48;5.85;;;21.10;82.90;;;;;;5034022;28;20025;-25
2022/08/18 06:50:56;;;;;;;7.07;5.60;;;21.20;82.90;;;;;;5033585;28;20079;-26
2022/08/18 06:53:22;;;;;;;7.55;5.60;;;21.20;82.70;;;;;;5033889;28;20357;-26
2022/08/18 06:55:49;;;;;;;6.35;5.60;;;21.20;82.60;;;;;;5033684;28;20029;-26
2022/08/18 06:58:15;;;;;;;6.63;5.38;;;21.30;82.60;;;;;;5033984;28;20469;-26
2022/08/18 07:00:55;;;;;;;6.40;4.95;;;21.30;82.40;;;;;;5034190;28;20029;-28
2022/08/18 07:03:43;;;;;;;5.90;4.90;;;21.40;82.40;;;;;;5033527;28;20030;-26
2022/08/18 07:06:20;;;;;;;5.05;4.53;;;21.40;82.20;;;;;;5032854;28;20043;-28
2022/08/18 07:08:48;;;;;;;6.32;4.50;;;21.30;82.10;;;;;;5033668;28;20068;-28
2022/08/18 07:11:28;;;;;;;6.68;5.18;;;21.30;82.00;;;;;;5033360;28;20095;-26
2022/08/18 07:14:16;;;;;;;5.00;4.32;;;21.20;81.90;;;;;;5033257;28;20033;-29
2022/08/18 07:16:42;;;;;;;7.05;4.25;;;21.20;81.90;;;;;;5022747;28;20564;-25
2022/08/18 07:19:08;;;;;;;4.30;3.90;;;21.20;81.90;;;;;;5033125;28;20096;-25
2022/08/18 07:21:36;;;;;;;5.20;4.40;;;21.20;81.80;;;;;;5031757;28;20182;-28
2022/08/18 07:24:17;;;;;;;4.40;4.00;;;21.20;81.70;;;;;;5033288;28;20022;-26
2022/08/18 07:26:59;;;;;;;5.00;4.30;;;21.30;81.70;;;;;;5033211;28;20543;-26
2022/08/18 07:29:24;;;;;;;6.45;4.20;;;21.40;81.60;;;;;;5033358;28;20112;-26
2022/08/18 07:31:53;;;;;;;5.38;4.60;;;21.40;81.50;;;;;;5032778;28;20172;-25
2022/08/18 07:34:36;;;;;;;5.30;4.60;;;21.40;81.40;;;;;;5032706;28;20097;-26
2022/08/18 07:37:30;;;;;;;6.45;3.85;;;21.40;81.40;;;;;;5032885;28;20017;-27
2022/08/18 07:40:08;;;;;;;5.55;4.95;;;21.40;81.10;;;;;;5022020;28;20067;-26
2022/08/18 07:42:45;;;;;;;5.53;4.18;;;21.40;81.00;;;;;;5032602;28;20026;-27
2022/08/18 07:45:21;;;;;;;4.63;3.90;;;21.40;80.90;;;;;;5032676;28;20384;-25
2022/08/18 07:48:27;;;;;;;4.10;3.75;;;21.50;80.80;;;;;;5032921;28;20021;-25
2022/08/18 07:51:13;;;;;;;6.13;4.20;;;21.50;80.70;;;;;;5024666;28;20098;-26
2022/08/18 07:53:58;;;;;;;4.15;3.75;;;21.50;80.70;;;;;;5032716;28;20025;-27
2022/08/18 07:56:48;;;;;;;5.13;4.15;;;21.60;80.70;;;;;;5032629;28;20053;-26
2022/08/18 07:59:34;;;;;;;4.97;3.50;;;21.60;80.40;;;;;;5032392;28;20030;-30
2022/08/18 08:02:11;;;;;;;4.38;3.70;;;21.60;80.50;;;;;;5032496;28;20385;-25
2022/08/18 08:04:46;;;;;;;4.13;3.35;;;21.50;80.40;;;;;;5032197;28;20052;-26
2022/08/18 08:07:16;;;;;;;4.50;3.17;;;21.60;80.40;;;;;;5032405;28;20037;-25
2022/08/18 08:09:51;;;;;;;5.70;3.20;;;21.70;80.30;;;;;;5032296;28;20036;-26
2022/08/18 08:12:29;;;;;;;3.83;3.40;;;21.70;79.90;;;;;;5032483;28;20034;-29
2022/08/18 08:15:27;;;;;;;4.40;3.33;;;21.90;79.80;;;;;;5032302;28;20126;-25
2022/08/18 08:18:11;;;;;;;4.40;3.60;;;22.00;79.40;;;;;;5027895;28;20037;-28
2022/08/18 08:20:50;;;;;;;3.70;2.90;;;22.10;79.00;;;;;;5032172;28;20013;-25
2022/08/18 08:23:37;;;;;;;3.45;2.53;;;22.20;78.90;;;;;;5033745;28;20040;-27
2022/08/18 08:26:18;;;;;;;3.30;3.00;;;22.30;78.40;;;;;;5036701;28;20014;-28
2022/08/18 08:29:03;;;;;;;4.03;2.75;;;22.50;77.90;;;;;;5036352;28;20032;-25
2022/08/18 08:31:47;;;;;;;3.85;3.05;;;22.60;77.30;;;;;;5036341;28;20167;-26
2022/08/18 08:34:34;;;;;;;3.00;2.70;;;22.70;76.60;;;;;;5036502;28;20038;-26
2022/08/18 08:37:03;;;;;;;2.92;2.65;;;22.80;76.40;;;;;;5036247;28;20032;-34
2022/08/18 08:39:35;;;;;;;3.15;2.60;;;22.90;76.00;;;;;;5036469;28;20030;-27
2022/08/18 08:42:10;;;;;;;4.40;2.75;;;22.90;75.60;;;;;;5036452;28;20108;-25
2022/08/18 08:44:52;;;;;;;3.85;2.85;;;23.00;75.30;;;;;;5036276;28;20026;-25
2022/08/18 08:47:40;;;;;;;3.00;2.70;;;23.00;75.30;;;;;;5036975;28;20461;-26
2022/08/18 08:50:12;;;;;;;3.95;2.70;;;23.10;75.10;;;;;;5036468;28;20355;-26
2022/08/18 08:53:12;;;;;;;3.03;2.53;;;23.20;74.90;;;;;;5036069;28;20060;-25
2022/08/18 08:55:45;;;;;;;3.17;2.53;;;23.20;74.60;;;;;;5035645;28;20103;-24
2022/08/18 08:58:35;;;;;;;2.75;2.53;;;23.30;74.50;;;;;;5035933;28;20358;-25
2022/08/18 09:01:02;;;;;;;3.35;2.65;;;23.30;74.40;;;;;;5035970;28;20484;-26
2022/08/18 09:03:40;;;;;;;4.55;2.70;;;23.30;74.20;;;;;;5035957;28;20398;-26
2022/08/18 09:06:20;;;;;;;4.72;2.70;;;23.30;74.20;;;;;;5035382;28;20213;-25
2022/08/18 09:09:06;;;;;;;3.28;2.50;;;23.30;74.00;;;;;;5035698;28;20022;-28
2022/08/18 09:11:58;;;;;;;3.30;3.00;;;23.30;74.10;;;;;;5035827;28;20037;-28
2022/08/18 09:14:35;;;;;;;4.43;2.55;;;23.40;73.90;;;;;;5035470;28;20544;-27
2022/08/18 09:17:24;;;;;;;3.20;2.83;;;23.50;73.80;;;;;;5035326;28;20452;-28
2022/08/18 09:20:13;;;;;;;4.60;3.22;;;23.60;73.60;;;;;;5006947;28;20064;-26
2022/08/18 09:22:52;;;;;;;4.60;2.67;;;23.70;73.70;;;;;;5027083;28;20121;-26
2022/08/18 09:25:36;;;;;;;3.38;2.63;;;23.80;73.00;;;;;;5035541;28;20029;-34
2022/08/18 09:28:29;;;;;;;4.50;3.42;;;23.80;72.80;;;;;;5035478;28;20026;-26
2022/08/18 09:31:00;;;;;;;4.07;3.22;;;23.90;72.50;;;;;;5035372;28;20032;-28
2022/08/18 09:33:44;;;;;;;4.72;2.88;;;23.90;72.30;;;;;;5035708;28;20032;-26
2022/08/18 09:36:27;;;;;;;2.95;2.65;;;24.00;72.30;;;;;;5036032;28;20548;-26
2022/08/18 09:42:08;;;;;;;2.53;2.30;;;24.00;72.30;;;;;;5035679;28;20249;-25
2022/08/18 09:44:46;;;;;;;5.55;2.83;;;24.00;72.40;;;;;;5035084;28;20505;-26
2022/08/18 09:47:36;;;;;;;2.50;2.30;;;24.00;72.30;;;;;;5035127;28;20025;-27
2022/08/18 09:50:04;;;;;;;2.58;2.20;;;24.00;72.00;;;;;;5005797;28;20041;-26
2022/08/18 09:52:33;;;;;;;2.50;2.30;;;24.00;71.80;;;;;;5034717;28;20493;-27
2022/08/18 09:55:04;;;;;;;2.72;2.38;;;24.00;71.40;;;;;;5033439;28;20025;-25
2022/08/18 09:57:38;;;;;;;5.13;2.20;;;24.00;71.30;;;;;;5034695;28;20032;-27
2022/08/18 10:00:06;;;;;;;2.50;2.30;;;24.00;71.10;;;;;;5033120;28;20037;-25
2022/08/18 10:02:32;;;;;;;2.95;2.10;;;24.00;71.10;;;;;;5034627;28;20405;-27
2022/08/18 10:05:16;;;;;;;2.28;2.08;;;24.10;70.90;;;;;;5034164;28;20080;-26
2022/08/18 10:07:46;;;;;;;2.35;2.13;;;24.20;70.60;;;;;;5034320;28;20037;-26
2022/08/18 10:10:38;;;;;;;3.20;2.10;;;24.40;70.50;;;;;;5034206;28;20037;-26
2022/08/18 10:13:22;;;;;;;2.58;2.30;;;24.40;70.00;;;;;;5034543;28;20080;-26
2022/08/18 10:16:06;;;;;;;3.58;2.30;;;24.50;70.70;;;;;;5034190;28;20413;-26
2022/08/18 10:18:37;;;;;;;2.53;2.00;;;24.60;70.00;;;;;;5034321;28;20067;-26
2022/08/18 10:21:08;;;;;;;2.67;2.10;;;24.60;70.00;;;;;;5034163;28;20031;-26
2022/08/18 10:23:52;;;;;;;2.30;2.03;;;24.60;69.90;;;;;;5034183;28;20052;-27
2022/08/18 10:26:41;;;;;;;2.00;1.90;;;24.60;69.80;;;;;;5032568;28;20089;-26
2022/08/18 10:29:24;;;;;;;2.75;2.42;;;24.60;70.40;;;;;;5025811;28;20123;-33
2022/08/18 10:31:56;;;;;;;2.78;2.10;;;24.60;69.70;;;;;;5034293;28;20041;-28
2022/08/18 10:34:41;;;;;;;2.53;2.33;;;24.60;69.80;;;;;;5034124;28;20477;-25
2022/08/18 10:37:43;;;;;;;3.53;2.30;;;24.60;69.60;;;;;;5033796;28;20454;-27
2022/08/18 10:40:08;;;;;;;2.65;2.15;;;24.70;69.30;;;;;;5015099;28;20046;-26
2022/08/18 10:42:58;;;;;;;2.72;2.30;;;24.80;69.00;;;;;;5033639;28;20342;-27
2022/08/18 10:45:34;;;;;;;2.85;2.30;;;24.90;68.70;;;;;;5033530;28;20492;-26
2022/08/18 10:48:13;;;;;;;2.40;2.20;;;24.90;68.40;;;;;;5033678;28;20087;-28
2022/08/18 10:51:05;;;;;;;3.10;2.60;;;25.20;68.30;;;;;;5033569;28;20116;-24
2022/08/18 10:53:44;;;;;;;3.03;2.20;;;25.40;67.80;;;;;;5033736;28;20050;-27
2022/08/18 10:56:31;;;;;;;3.08;2.42;;;25.40;67.60;;;;;;5033868;28;20390;-26
2022/08/18 10:59:35;;;;;;;2.50;2.25;;;25.50;67.50;;;;;;5033459;28;20037;-26
2022/08/18 11:02:38;;;;;;;2.78;2.58;;;25.50;67.50;;;;;;5033657;28;20441;-29
2022/08/18 11:05:10;;;;;;;2.63;2.42;;;25.40;67.50;;;;;;5033458;28;20049;-26
2022/08/18 11:07:41;;;;;;;3.07;2.60;;;25.20;67.80;;;;;;5033577;28;20036;-26
2022/08/18 11:10:19;;;;;;;2.65;2.42;;;25.10;68.00;;;;;;5033128;28;20517;-27
2022/08/18 11:12:59;;;;;;;3.33;2.67;;;25.10;68.10;;;;;;5033013;28;20489;-28
2022/08/18 11:15:54;;;;;;;3.83;2.92;;;25.00;68.30;;;;;;5033325;28;20025;-27
2022/08/18 11:18:41;;;;;;;4.72;2.75;;;24.90;68.40;;;;;;5032936;28;20040;-27
2022/08/18 11:21:33;;;;;;;4.43;2.78;;;24.70;68.50;;;;;;5033091;28;20072;-29
2022/08/18 11:24:31;;;;;;;3.17;2.88;;;24.70;68.60;;;;;;5033317;28;20040;-29
2022/08/18 11:27:15;;;;;;;2.95;2.65;;;24.70;68.70;;;;;;5032746;28;20059;-26
2022/08/18 11:29:42;;;;;;;3.67;2.88;;;24.70;68.70;;;;;;5031382;28;20199;-26
2022/08/18 11:32:22;;;;;;;2.88;2.67;;;24.70;68.70;;;;;;5032782;28;20120;-28
2022/08/18 11:34:51;;;;;;;3.08;2.80;;;24.70;68.60;;;;;;5032994;28;20029;-25
2022/08/18 11:37:44;;;;;;;5.82;2.90;;;24.60;68.70;;;;;;5032617;28;20018;-27
2022/08/18 11:40:13;;;;;;;;;;;24.60;68.70;;;;;;5033048;28;20044;-26
2022/08/18 11:42:48;;;;;;;3.05;2.75;;;24.60;68.80;;;;;;5032521;28;20361;-26
2022/08/18 11:45:20;;;;;;;7.53;3.10;;;24.60;68.70;;;;;;5032715;28;20041;-26
2022/08/18 11:48:01;;;;;;;6.63;2.85;;;24.60;68.50;;;;;;5032546;28;20037;-27
2022/08/18 11:50:29;;;;;;;3.47;2.72;;;24.70;68.50;;;;;;5032734;28;20033;-27
2022/08/18 11:52:56;;;;;;;2.85;2.58;;;24.70;68.40;;;;;;5032919;28;20473;-34
2022/08/18 11:55:34;;;;;;;3.60;2.63;;;24.80;68.20;;;;;;5032379;28;20036;-26
2022/08/18 11:58:01;;;;;;;6.00;2.72;;;24.80;68.20;;;;;;5031460;28;20044;-27
2022/08/18 12:00:36;;;;;;;3.40;2.60;;;24.80;68.00;;;;;;5032605;28;20025;-28
2022/08/18 12:03:24;;;;;;;4.07;2.70;;;24.90;67.90;;;;;;5032369;28;20033;-26
2022/08/18 12:05:58;;;;;;;4.57;2.50;;;24.90;67.90;;;;;;5021893;28;20045;-26
2022/08/18 12:08:47;;;;;;;3.28;2.97;;;24.90;67.90;;;;;;5032796;28;20040;-26
2022/08/18 12:11:19;;;;;;;2.53;2.33;;;24.90;67.80;;;;;;5032571;28;20040;-28
2022/08/18 12:13:55;;;;;;;2.60;2.40;;;24.90;67.80;;;;;;5032607;28;20021;-27
2022/08/18 12:16:41;;;;;;;3.95;2.38;;;24.90;67.80;;;;;;5030969;28;20036;-26
2022/08/18 12:19:10;;;;;;;2.72;2.50;;;24.90;67.60;;;;;;5032538;28;20053;-27
2022/08/18 12:21:42;;;;;;;2.90;2.45;;;24.90;67.50;;;;;;5032400;28;20389;-27
2022/08/18 12:24:19;;;;;;;3.63;2.97;;;25.00;67.50;;;;;;5032364;28;20111;-24
2022/08/18 12:26:45;;;;;;;3.75;2.80;;;25.00;67.20;;;;;;5032111;28;20485;-26
2022/08/18 12:29:10;;;;;;;2.95;2.50;;;25.00;67.10;;;;;;5032147;28;20044;-26
2022/08/18 12:31:36;;;;;;;2.70;2.40;;;25.10;67.10;;;;;;5032089;28;20022;-27
2022/08/18 12:34:03;;;;;;;2.47;2.28;;;25.10;67.00;;;;;;5031978;28;20053;-27
2022/08/18 12:36:29;;;;;;;4.13;2.80;;;25.20;67.60;;;;;;5031996;28;20036;-27
2022/08/18 12:38:55;;;;;;;3.17;2.70;;;25.30;66.80;;;;;;5031940;28;20030;-25
2022/08/18 12:41:20;;;;;;;3.35;2.42;;;25.30;66.70;;;;;;5031780;28;20052;-27
2022/08/18 12:43:46;;;;;;;2.55;2.35;;;25.30;66.60;;;;;;5032242;28;20068;-27
2022/08/18 12:46:12;;;;;;;5.72;2.60;;;25.30;66.50;;;;;;5032037;28;20030;-26
2022/08/18 12:48:38;;;;;;;2.45;2.25;;;25.30;66.50;;;;;;5031726;28;20041;-26
2022/08/18 12:51:06;;;;;;;2.88;2.67;;;25.20;66.40;;;;;;5032037;28;20025;-26
2022/08/18 12:53:32;;;;;;;2.60;2.40;;;25.20;67.10;;;;;;5032136;28;20018;-27
2022/08/18 12:55:59;;;;;;;3.15;2.45;;;25.10;66.40;;;;;;5030837;28;20030;-26
2022/08/18 12:58:26;;;;;;;2.97;2.60;;;25.10;66.50;;;;;;5031822;28;20037;-26
2022/08/18 13:00:51;;;;;;;2.60;2.40;;;25.10;66.60;;;;;;5031814;28;20075;-32
2022/08/18 13:03:18;;;;;;;2.90;2.60;;;25.00;66.60;;;;;;5032176;28;20112;-26
2022/08/18 13:05:44;;;;;;;2.60;2.40;;;25.00;66.60;;;;;;5031660;28;20116;-27
2022/08/18 13:08:19;;;;;;;2.40;2.20;;;25.00;66.70;;;;;;5032151;28;20033;-26
2022/08/18 13:10:46;;;;;;;3.80;2.50;;;24.90;66.70;;;;;;5035095;28;20053;-25
2022/08/18 13:13:14;;;;;;;2.78;2.58;;;25.00;66.80;;;;;;5035660;28;20029;-26
2022/08/18 13:15:40;;;;;;;2.40;2.20;;;25.00;66.70;;;;;;5035711;28;20110;-25
2022/08/18 13:18:06;;;;;;;2.38;2.17;;;25.00;66.80;;;;;;5034095;28;20056;-25
2022/08/18 13:20:33;;;;;;;2.90;2.47;;;25.00;67.00;;;;;;5035487;28;20104;-25
2022/08/18 13:22:59;;;;;;;2.75;2.55;;;25.00;67.00;;;;;;5035561;28;20021;-26
2022/08/18 13:25:25;;;;;;;2.92;2.70;;;24.90;66.90;;;;;;5035493;28;20052;-26
2022/08/18 13:27:51;;;;;;;3.10;2.80;;;24.90;67.00;;;;;;5035920;28;20116;-27
2022/08/18 13:30:17;;;;;;;2.90;2.55;;;24.90;67.20;;;;;;5035588;28;20061;-28